createdAt,value
2018-08-19T00:00:35.751Z,26
2018-08-19T00:01:25.355Z,26
2018-08-19T00:02:15.861Z,26
2018-08-19T00:03:06.292Z,26
2018-08-19T00:03:56.609Z,26
2018-08-19T00:04:45.811Z,26
2018-08-19T00:05:35.536Z,25.9
2018-08-19T00:06:25.806Z,25.9
2018-08-19T00:07:16.053Z,26
2018-08-19T00:08:05.876Z,26
2018-08-19T00:08:56.223Z,26
2018-08-19T00:09:45.995Z,25.9
2018-08-19T00:10:36.329Z,25.9
2018-08-19T00:11:26.376Z,25.9
2018-08-19T00:12:16.199Z,25.9
2018-08-19T00:13:06.769Z,25.9
2018-08-19T00:13:56.299Z,25.9
2018-08-19T00:14:46.287Z,25.9
2018-08-19T00:15:37.223Z,25.9
2018-08-19T00:16:27.303Z,25.9
2018-08-19T00:17:17.109Z,25.9
2018-08-19T00:18:07.358Z,25.9
2018-08-19T00:18:57.601Z,25.9
2018-08-19T00:37:49.207Z,25.9
2018-08-19T00:38:38.398Z,25.9
2018-08-19T00:39:29.032Z,25.9
2018-08-19T00:40:18.644Z,25.9
2018-08-19T00:41:08.895Z,25.9
2018-08-19T00:41:58.847Z,25.9
2018-08-19T00:42:49.660Z,25.9
2018-08-19T00:43:38.569Z,25.9
2018-08-19T00:44:29.444Z,25.9
2018-08-19T00:45:18.995Z,25.9
2018-08-19T00:46:09.975Z,25.9
2018-08-19T00:46:59.219Z,25.9
2018-08-19T00:47:49.000Z,25.9
2018-08-19T00:48:39.117Z,25.9
2018-08-19T00:49:29.901Z,25.9
2018-08-19T00:50:20.038Z,25.9
2018-08-19T00:51:09.307Z,25.9
2018-08-19T00:52:00.487Z,25.9
2018-08-19T00:52:50.322Z,25.9
2018-08-19T00:53:39.967Z,25.9
2018-08-19T00:54:29.750Z,25.9
2018-08-19T00:55:20.565Z,25.9
2018-08-19T00:56:10.174Z,25.9
2018-08-19T00:57:00.251Z,25.9
2018-08-19T00:57:50.007Z,25.9
2018-08-19T00:58:40.601Z,25.9
2018-08-19T00:59:29.889Z,25.9
2018-08-19T01:00:20.453Z,25.9
2018-08-19T01:01:11.193Z,25.9
2018-08-19T01:01:59.771Z,25.9
2018-08-19T01:02:50.970Z,25.8
2018-08-19T01:03:40.471Z,25.9
2018-08-19T01:04:30.441Z,25.9
2018-08-19T01:05:20.723Z,25.9
2018-08-19T01:06:11.127Z,25.9
2018-08-19T01:07:01.201Z,25.8
2018-08-19T01:07:51.305Z,25.9
2018-08-19T01:08:41.073Z,25.9
2018-08-19T01:09:31.448Z,25.8
2018-08-19T01:10:21.219Z,25.8
2018-08-19T01:11:11.277Z,25.8
2018-08-19T01:12:01.097Z,25.8
2018-08-19T01:12:51.150Z,25.8
2018-08-19T01:13:41.682Z,25.8
2018-08-19T01:14:31.478Z,25.8
2018-08-19T01:15:22.093Z,25.8
2018-08-19T01:16:11.875Z,25.8
2018-08-19T01:17:01.676Z,25.8
2018-08-19T01:17:51.785Z,25.8
2018-08-19T01:18:42.322Z,25.8
2018-08-19T01:19:32.509Z,25.8
2018-08-19T01:20:22.227Z,25.8
2018-08-19T01:21:12.097Z,25.8
2018-08-19T01:22:01.600Z,25.8
2018-08-19T01:22:52.926Z,25.8
2018-08-19T01:23:42.300Z,25.8
2018-08-19T01:24:32.380Z,25.8
2018-08-19T01:25:21.884Z,25.8
2018-08-19T01:26:12.497Z,25.8
2018-08-19T01:27:02.306Z,25.8
2018-08-19T01:27:52.340Z,25.8
2018-08-19T01:28:42.782Z,25.8
2018-08-19T01:29:32.457Z,25.8
2018-08-19T01:30:22.592Z,25.8
2018-08-19T01:31:12.145Z,25.8
2018-08-19T01:32:02.679Z,25.8
2018-08-19T01:32:52.837Z,25.8
2018-08-19T01:33:43.218Z,25.8
2018-08-19T01:34:33.122Z,25.8
2018-08-19T01:35:23.231Z,25.8
2018-08-19T01:36:12.707Z,25.8
2018-08-19T01:37:03.936Z,25.8
2018-08-19T01:37:52.831Z,25.8
2018-08-19T01:38:42.372Z,25.8
2018-08-19T01:39:33.535Z,25.8
2018-08-19T01:40:23.781Z,25.8
2018-08-19T01:41:13.307Z,25.8
2018-08-19T01:42:03.417Z,25.8
2018-08-19T01:42:52.959Z,25.8
2018-08-19T01:43:43.238Z,25.8
2018-08-19T01:44:33.099Z,25.8
2018-08-19T01:45:24.196Z,25.8
2018-08-19T01:46:14.050Z,25.8
2018-08-19T01:47:03.232Z,25.8
2018-08-19T01:47:53.034Z,25.8
2018-08-19T01:48:44.831Z,25.8
2018-08-19T01:49:33.407Z,25.8
2018-08-19T01:50:24.380Z,25.8
2018-08-19T01:51:14.119Z,25.8
2018-08-19T01:52:04.786Z,25.8
2018-08-19T01:52:54.819Z,25.8
2018-08-19T01:53:44.330Z,25.7
2018-08-19T01:54:34.365Z,25.8
2018-08-19T01:55:24.942Z,25.8
2018-08-19T01:56:14.265Z,25.8
2018-08-19T01:57:04.757Z,25.7
2018-08-19T01:57:54.958Z,25.8
2018-08-19T01:58:45.334Z,25.8
2018-08-19T01:59:35.106Z,25.8
2018-08-19T02:00:25.135Z,25.7
2018-08-19T02:01:15.220Z,25.8
2018-08-19T02:02:05.276Z,25.7
2018-08-19T02:02:55.330Z,25.7
2018-08-19T02:03:44.604Z,25.7
2018-08-19T02:04:35.268Z,25.7
2018-08-19T02:05:25.841Z,25.7
2018-08-19T02:06:15.131Z,25.7
2018-08-19T02:07:06.015Z,25.7
2018-08-19T02:07:55.754Z,25.7
2018-08-19T02:08:45.800Z,25.7
2018-08-19T02:09:35.600Z,25.7
2018-08-19T02:10:25.678Z,25.7
2018-08-19T02:11:15.490Z,25.7
2018-08-19T02:12:06.653Z,25.7
2018-08-19T02:12:56.176Z,25.7
2018-08-19T02:13:46.182Z,25.7
2018-08-19T02:14:36.283Z,25.7
2018-08-19T02:15:26.314Z,25.7
2018-08-19T02:16:16.018Z,25.7
2018-08-19T02:17:06.153Z,25.7
2018-08-19T02:17:56.167Z,25.7
2018-08-19T02:18:46.001Z,25.7
2018-08-19T02:19:36.605Z,25.7
2018-08-19T02:20:26.646Z,25.7
2018-08-19T02:21:16.487Z,25.7
2018-08-19T02:22:06.497Z,25.6
2018-08-19T02:22:55.700Z,25.7
2018-08-19T02:23:46.930Z,25.6
2018-08-19T02:24:36.465Z,25.6
2018-08-19T02:25:27.099Z,25.6
2018-08-19T02:26:17.105Z,25.6
2018-08-19T02:27:06.363Z,25.6
2018-08-19T02:27:56.675Z,25.6
2018-08-19T02:28:47.594Z,25.6
2018-08-19T02:29:36.561Z,25.7
2018-08-19T02:30:26.681Z,25.6
2018-08-19T02:31:17.546Z,25.7
2018-08-19T02:32:07.037Z,25.6
2018-08-19T02:32:57.682Z,25.6
2018-08-19T02:33:47.231Z,25.6
2018-08-19T02:34:38.419Z,25.6
2018-08-19T02:35:27.635Z,25.6
2018-08-19T02:36:17.764Z,25.6
2018-08-19T02:37:08.064Z,25.6
2018-08-19T02:37:58.119Z,25.6
2018-08-19T02:38:48.143Z,25.6
2018-08-19T02:39:38.223Z,25.6
2018-08-19T02:40:28.047Z,25.6
2018-08-19T02:41:18.368Z,25.6
2018-08-19T02:42:08.223Z,25.6
2018-08-19T02:42:58.795Z,25.6
2018-08-19T02:43:49.247Z,25.6
2018-08-19T02:44:38.116Z,25.6
2018-08-19T02:45:28.210Z,25.6
2018-08-19T02:46:19.017Z,25.6
2018-08-19T02:47:08.588Z,25.6
2018-08-19T02:47:58.319Z,25.6
2018-08-19T02:48:49.045Z,25.6
2018-08-19T02:49:39.015Z,25.6
2018-08-19T02:50:29.625Z,25.6
2018-08-19T02:51:19.075Z,25.6
2018-08-19T02:52:09.058Z,25.6
2018-08-19T02:52:58.680Z,25.6
2018-08-19T02:53:48.669Z,25.6
2018-08-19T02:54:39.736Z,25.6
2018-08-19T02:55:28.483Z,25.6
2018-08-19T02:56:19.197Z,25.6
2018-08-19T02:57:08.926Z,25.6
2018-08-19T02:57:59.538Z,25.6
2018-08-19T02:58:49.082Z,25.6
2018-08-19T02:59:39.493Z,25.6
2018-08-19T03:00:29.736Z,25.6
2018-08-19T03:01:19.801Z,25.6
2018-08-19T03:02:08.792Z,25.6
2018-08-19T03:03:00.203Z,25.6
2018-08-19T03:03:49.483Z,25.6
2018-08-19T03:04:40.061Z,25.6
2018-08-19T03:05:30.774Z,25.6
2018-08-19T03:06:20.635Z,25.6
2018-08-19T03:07:09.965Z,25.6
2018-08-19T03:08:00.330Z,25.6
2018-08-19T03:08:50.741Z,25.6
2018-08-19T03:09:40.620Z,25.6
2018-08-19T03:10:30.955Z,25.6
2018-08-19T03:11:20.651Z,25.6
2018-08-19T03:12:10.819Z,25.6
2018-08-19T03:13:00.527Z,25.6
2018-08-19T03:13:50.882Z,25.5
2018-08-19T03:14:40.660Z,25.6
2018-08-19T03:15:31.322Z,25.6
2018-08-19T03:16:20.572Z,25.6
2018-08-19T03:17:11.144Z,25.6
2018-08-19T03:18:00.997Z,25.5
2018-08-19T03:18:51.297Z,25.6
2018-08-19T03:19:41.086Z,25.5
2018-08-19T03:20:31.112Z,25.5
2018-08-19T03:21:21.275Z,25.5
2018-08-19T03:22:11.975Z,25.6
2018-08-19T03:23:01.612Z,25.5
2018-08-19T03:23:51.657Z,25.5
2018-08-19T03:24:42.297Z,25.5
2018-08-19T03:25:32.333Z,25.5
2018-08-19T03:26:21.275Z,25.5
2018-08-19T03:27:11.020Z,25.5
2018-08-19T03:28:00.821Z,25.5
2018-08-19T03:28:51.378Z,25.5
2018-08-19T03:29:42.051Z,25.5
2018-08-19T03:30:32.551Z,25.5
2018-08-19T03:31:21.964Z,25.5
2018-08-19T03:32:12.566Z,25.5
2018-08-19T03:33:01.557Z,25.5
2018-08-19T03:33:53.039Z,25.5
2018-08-19T03:34:41.337Z,25.4
2018-08-19T03:35:31.905Z,25.5
2018-08-19T03:36:23.210Z,25.5
2018-08-19T03:37:12.312Z,25.5
2018-08-19T03:38:04.297Z,25.4
2018-08-19T03:38:52.193Z,25.4
2018-08-19T03:39:42.584Z,25.4
2018-08-19T03:40:32.387Z,25.4
2018-08-19T03:41:23.237Z,25.5
2018-08-19T03:42:13.309Z,25.5
2018-08-19T03:43:02.823Z,25.4
2018-08-19T03:43:52.604Z,25.4
2018-08-19T03:44:43.761Z,25.4
2018-08-19T03:45:33.935Z,25.4
2018-08-19T03:46:23.411Z,25.4
2018-08-19T03:47:13.214Z,25.4
2018-08-19T03:48:03.524Z,25.4
2018-08-19T03:48:53.846Z,25.4
2018-08-19T03:49:43.713Z,25.4
2018-08-19T03:50:33.754Z,25.4
2018-08-19T03:51:24.104Z,25.4
2018-08-19T03:52:13.620Z,25.4
2018-08-19T03:53:03.701Z,25.4
2018-08-19T03:53:53.460Z,25.4
2018-08-19T03:54:44.307Z,25.4
2018-08-19T03:55:34.208Z,25.4
2018-08-19T03:56:23.669Z,25.4
2018-08-19T03:57:14.838Z,25.4
2018-08-19T03:58:03.456Z,25.4
2018-08-19T03:58:54.944Z,25.4
2018-08-19T03:59:44.440Z,25.4
2018-08-19T04:00:33.973Z,25.4
2018-08-19T04:01:24.357Z,25.4
2018-08-19T04:02:14.868Z,25.4
2018-08-19T04:03:04.912Z,25.4
2018-08-19T04:03:54.183Z,25.4
2018-08-19T04:04:43.352Z,25.4
2018-08-19T04:05:34.558Z,25.4
2018-08-19T04:06:24.950Z,25.4
2018-08-19T04:07:14.987Z,25.4
2018-08-19T04:08:04.777Z,25.4
2018-08-19T04:08:55.638Z,25.3
2018-08-19T04:09:44.305Z,25.3
2018-08-19T04:10:34.076Z,25.4
2018-08-19T04:11:25.292Z,25.4
2018-08-19T04:12:14.794Z,25.3
2018-08-19T04:13:05.467Z,25.4
2018-08-19T04:13:54.903Z,25.4
2018-08-19T04:14:44.747Z,25.4
2018-08-19T04:15:35.509Z,25.4
2018-08-19T04:16:25.664Z,25.4
2018-08-19T04:17:15.920Z,25.3
2018-08-19T04:18:05.502Z,25.3
2018-08-19T04:18:55.331Z,25.3
2018-08-19T04:19:46.474Z,25.3
2018-08-19T04:20:35.776Z,25.3
2018-08-19T04:21:26.183Z,25.3
2018-08-19T04:22:16.848Z,25.3
2018-08-19T04:23:05.931Z,25.3
2018-08-19T04:23:55.837Z,25.3
2018-08-19T04:24:46.392Z,25.3
2018-08-19T04:25:36.741Z,25.3
2018-08-19T04:26:26.573Z,25.3
2018-08-19T04:27:16.598Z,25.3
2018-08-19T04:28:06.694Z,25.3
2018-08-19T04:28:56.997Z,25.3
2018-08-19T04:29:46.766Z,25.3
2018-08-19T04:30:37.086Z,25.3
2018-08-19T04:31:26.958Z,25.3
2018-08-19T04:32:17.424Z,25.4
2018-08-19T04:33:07.091Z,25.3
2018-08-19T04:33:57.377Z,25.3
2018-08-19T04:34:47.724Z,25.3
2018-08-19T04:35:37.213Z,25.3
2018-08-19T04:36:27.304Z,25.3
2018-08-19T04:37:17.375Z,25.3
2018-08-19T04:38:07.135Z,25.3
2018-08-19T04:38:57.786Z,25.3
2018-08-19T04:39:46.960Z,25.3
2018-08-19T04:40:37.058Z,25.3
2018-08-19T04:41:27.438Z,25.3
2018-08-19T04:42:17.802Z,25.3
2018-08-19T04:43:08.085Z,25.3
2018-08-19T04:43:57.886Z,25.3
2018-08-19T04:44:47.619Z,25.3
2018-08-19T04:45:37.638Z,25.3
2018-08-19T04:46:27.774Z,25.3
2018-08-19T04:47:18.419Z,25.3
2018-08-19T04:48:08.175Z,25.3
2018-08-19T04:48:58.084Z,25.3
2018-08-19T05:07:12.458Z,25.3
2018-08-19T05:07:48.591Z,25.3
2018-08-19T05:08:53.855Z,25.3
2018-08-19T05:09:29.294Z,25.4
2018-08-19T05:10:19.273Z,25.3
2018-08-19T05:11:09.361Z,25.3
2018-08-19T05:11:58.850Z,25.4
2018-08-19T05:12:49.119Z,25.4
2018-08-19T05:13:38.345Z,25.4
2018-08-19T05:14:44.167Z,25.4
2018-08-19T05:15:18.521Z,25.4
2018-08-19T05:16:23.620Z,25.3
2018-08-19T05:17:00.281Z,25.4
2018-08-19T05:17:50.254Z,25.3
2018-08-19T05:18:53.992Z,25.4
2018-08-19T05:19:44.625Z,25.4
2018-08-19T05:20:35.057Z,25.4
2018-08-19T05:21:10.183Z,25.4
2018-08-19T05:21:59.876Z,25.4
2018-08-19T05:22:51.387Z,25.4
2018-08-19T05:23:39.787Z,25.3
2018-08-19T05:24:30.404Z,25.4
2018-08-19T05:25:23.110Z,25.3
2018-08-19T05:26:10.251Z,25.4
2018-08-19T05:27:00.672Z,25.4
2018-08-19T05:27:50.432Z,25.4
2018-08-19T05:28:41.630Z,25.4
2018-08-19T05:29:30.224Z,25.4
2018-08-19T05:30:19.700Z,25.4
2018-08-19T05:31:10.900Z,25.4
2018-08-19T05:32:01.101Z,25.4
2018-08-19T05:32:50.757Z,25.4
2018-08-19T05:33:39.979Z,25.4
2018-08-19T05:34:30.546Z,25.4
2018-08-19T05:35:20.315Z,25.4
2018-08-19T05:36:10.697Z,25.4
2018-08-19T05:36:59.914Z,25.4
2018-08-19T05:37:50.320Z,25.4
2018-08-19T05:38:40.318Z,25.4
2018-08-19T05:39:30.969Z,25.4
2018-08-19T05:40:35.647Z,25.4
2018-08-19T05:41:10.769Z,25.4
2018-08-19T05:42:00.611Z,25.4
2018-08-19T05:42:51.157Z,25.4
2018-08-19T05:43:40.696Z,25.5
2018-08-19T05:44:31.033Z,25.4
2018-08-19T05:45:21.336Z,25.5
2018-08-19T05:46:11.410Z,25.4
2018-08-19T05:47:01.628Z,25.5
2018-08-19T05:47:51.813Z,25.4
2018-08-19T05:48:41.613Z,25.5
2018-08-19T05:49:31.105Z,25.4
2018-08-19T05:50:21.711Z,25.5
2018-08-19T05:51:11.533Z,25.5
2018-08-19T05:52:02.272Z,25.4
2018-08-19T05:52:51.455Z,25.5
2018-08-19T05:53:56.791Z,25.4
2018-08-19T05:54:32.295Z,25.5
2018-08-19T05:55:22.556Z,25.5
2018-08-19T05:56:11.966Z,25.5
2018-08-19T05:57:02.931Z,25.5
2018-08-19T05:57:52.675Z,25.5
2018-08-19T05:58:42.222Z,25.5
2018-08-19T05:59:31.705Z,25.5
2018-08-19T06:00:22.875Z,25.5
2018-08-19T06:01:14.549Z,25.5
2018-08-19T06:02:02.780Z,25.5
2018-08-19T06:02:53.106Z,25.5
2018-08-19T06:03:43.098Z,25.5
2018-08-19T06:04:33.139Z,25.5
2018-08-19T06:05:23.629Z,25.5
2018-08-19T06:06:13.320Z,25.5
2018-08-19T06:07:03.673Z,25.5
2018-08-19T06:07:53.692Z,25.6
2018-08-19T06:08:43.550Z,25.6
2018-08-19T06:09:33.942Z,25.5
2018-08-19T06:10:23.884Z,25.6
2018-08-19T06:11:13.719Z,25.6
2018-08-19T06:12:03.967Z,25.6
2018-08-19T06:12:52.895Z,25.6
2018-08-19T06:13:43.547Z,25.6
2018-08-19T06:14:33.783Z,25.6
2018-08-19T06:15:38.394Z,25.6
2018-08-19T06:16:13.015Z,25.6
2018-08-19T06:17:04.131Z,25.6
2018-08-19T06:17:54.410Z,25.6
2018-08-19T06:18:44.275Z,25.6
2018-08-19T06:19:33.519Z,25.6
2018-08-19T06:20:24.097Z,25.6
2018-08-19T06:21:13.879Z,25.6
2018-08-19T06:22:07.463Z,25.6
2018-08-19T06:22:53.733Z,25.6
2018-08-19T06:23:43.474Z,25.6
2018-08-19T06:24:33.971Z,25.6
2018-08-19T06:25:39.160Z,25.6
2018-08-19T06:26:14.907Z,25.6
2018-08-19T06:27:04.581Z,25.6
2018-08-19T06:27:55.136Z,25.6
2018-08-19T06:28:44.845Z,25.6
2018-08-19T06:29:34.439Z,25.6
2018-08-19T06:30:24.371Z,25.6
2018-08-19T06:31:18.012Z,25.6
2018-08-19T06:32:04.831Z,25.6
2018-08-19T06:32:55.031Z,25.6
2018-08-19T06:33:44.359Z,25.7
2018-08-19T06:34:36.641Z,25.6
2018-08-19T06:35:40.333Z,25.6
2018-08-19T06:36:15.674Z,25.6
2018-08-19T06:37:06.192Z,25.6
2018-08-19T06:37:56.144Z,25.6
2018-08-19T06:38:45.572Z,25.6
2018-08-19T06:39:35.974Z,25.6
2018-08-19T06:40:25.568Z,25.6
2018-08-19T06:41:16.443Z,25.6
2018-08-19T06:42:06.245Z,25.6
2018-08-19T06:42:55.414Z,25.6
2018-08-19T06:43:46.279Z,25.6
2018-08-19T06:44:36.284Z,25.6
2018-08-19T06:45:26.544Z,25.6
2018-08-19T06:46:16.054Z,25.6
2018-08-19T06:47:05.692Z,25.6
2018-08-19T06:47:55.695Z,25.6
2018-08-19T06:48:45.846Z,25.6
2018-08-19T06:49:36.141Z,25.6
2018-08-19T06:50:25.914Z,25.6
2018-08-19T06:51:17.527Z,25.6
2018-08-19T06:52:05.437Z,25.6
2018-08-19T06:52:56.936Z,25.6
2018-08-19T06:53:46.731Z,25.6
2018-08-19T06:54:36.718Z,25.6
2018-08-19T06:55:27.095Z,25.6
2018-08-19T06:56:17.255Z,25.6
2018-08-19T06:57:06.588Z,25.6
2018-08-19T06:57:57.264Z,25.6
2018-08-19T06:58:47.318Z,25.6
2018-08-19T06:59:36.902Z,25.6
2018-08-19T07:00:26.725Z,25.6
2018-08-19T07:01:17.413Z,25.6
2018-08-19T07:02:07.011Z,25.5
2018-08-19T07:02:56.864Z,25.6
2018-08-19T07:03:51.043Z,25.6
2018-08-19T07:04:37.926Z,25.5
2018-08-19T07:05:27.962Z,25.5
2018-08-19T07:06:18.035Z,25.5
2018-08-19T07:07:08.058Z,25.5
2018-08-19T07:07:58.151Z,25.5
2018-08-19T07:08:48.141Z,25.5
2018-08-19T07:09:38.324Z,25.5
2018-08-19T07:10:27.573Z,25.5
2018-08-19T07:11:18.668Z,25.5
2018-08-19T07:12:07.354Z,25.5
2018-08-19T07:12:57.999Z,25.5
2018-08-19T07:13:47.241Z,25.5
2018-08-19T07:14:38.161Z,25.5
2018-08-19T07:15:28.701Z,25.5
2018-08-19T07:16:18.559Z,25.5
2018-08-19T07:17:07.384Z,25.5
2018-08-19T07:17:58.200Z,25.5
2018-08-19T07:18:50.798Z,25.5
2018-08-19T07:19:39.040Z,25.5
2018-08-19T07:20:28.840Z,25.5
2018-08-19T07:21:19.483Z,25.5
2018-08-19T07:22:08.865Z,25.5
2018-08-19T07:22:58.914Z,25.5
2018-08-19T07:23:50.344Z,25.5
2018-08-19T07:24:38.772Z,25.5
2018-08-19T07:25:29.313Z,25.5
2018-08-19T07:26:18.640Z,25.5
2018-08-19T07:27:09.257Z,25.5
2018-08-19T07:27:59.853Z,25.5
2018-08-19T07:28:49.696Z,25.5
2018-08-19T07:29:40.433Z,25.5
2018-08-19T07:30:28.980Z,25.5
2018-08-19T07:31:19.620Z,25.5
2018-08-19T07:32:08.969Z,25.5
2018-08-19T07:33:00.028Z,25.5
2018-08-19T07:33:50.068Z,25.5
2018-08-19T07:34:38.850Z,25.5
2018-08-19T07:35:29.678Z,25.5
2018-08-19T07:36:19.166Z,25.5
2018-08-19T07:37:11.531Z,25.5
2018-08-19T07:38:00.207Z,25.5
2018-08-19T07:38:49.965Z,25.5
2018-08-19T07:39:40.338Z,25.5
2018-08-19T07:40:30.770Z,25.5
2018-08-19T07:41:21.013Z,25.5
2018-08-19T07:42:09.757Z,25.5
2018-08-19T07:43:00.660Z,25.5
2018-08-19T07:43:50.651Z,25.6
2018-08-19T07:44:40.466Z,25.6
2018-08-19T07:45:31.538Z,25.6
2018-08-19T07:46:21.374Z,25.5
2018-08-19T07:47:10.923Z,25.6
2018-08-19T07:48:00.536Z,25.6
2018-08-19T07:48:51.039Z,25.6
2018-08-19T07:49:40.546Z,25.6
2018-08-19T07:50:31.198Z,25.5
2018-08-19T07:51:22.167Z,25.6
2018-08-19T07:52:11.462Z,25.6
2018-08-19T07:53:01.819Z,25.6
2018-08-19T07:53:51.487Z,25.6
2018-08-19T07:54:39.965Z,25.6
2018-08-19T07:55:31.707Z,25.6
2018-08-19T07:56:22.015Z,25.6
2018-08-19T07:57:10.926Z,25.5
2018-08-19T07:58:00.908Z,25.6
2018-08-19T07:59:06.382Z,25.6
2018-08-19T07:59:40.240Z,25.6
2018-08-19T08:00:30.843Z,25.6
2018-08-19T08:01:22.694Z,25.6
2018-08-19T08:02:11.266Z,25.6
2018-08-19T08:03:01.674Z,25.6
2018-08-19T08:03:50.698Z,25.6
2018-08-19T08:04:41.981Z,25.6
2018-08-19T08:05:32.244Z,25.6
2018-08-19T08:06:22.835Z,25.6
2018-08-19T08:07:11.870Z,25.6
2018-08-19T08:08:01.672Z,25.6
2018-08-19T08:08:52.114Z,25.6
2018-08-19T08:09:42.267Z,25.6
2018-08-19T08:10:32.454Z,25.6
2018-08-19T08:11:22.539Z,25.6
2018-08-19T08:12:12.322Z,25.6
2018-08-19T08:13:02.380Z,25.6
2018-08-19T08:13:53.495Z,25.6
2018-08-19T08:14:42.520Z,25.6
2018-08-19T08:15:32.614Z,25.6
2018-08-19T08:16:23.737Z,25.6
2018-08-19T08:17:12.852Z,25.6
2018-08-19T08:18:03.270Z,25.6
2018-08-19T08:18:53.125Z,25.6
2018-08-19T08:19:43.713Z,25.6
2018-08-19T08:20:33.554Z,25.6
2018-08-19T08:21:27.401Z,25.6
2018-08-19T08:22:13.985Z,25.6
2018-08-19T08:23:03.429Z,25.6
2018-08-19T08:23:53.760Z,25.6
2018-08-19T08:24:43.398Z,25.6
2018-08-19T08:25:34.504Z,25.6
2018-08-19T08:26:23.681Z,25.7
2018-08-19T08:27:14.514Z,25.6
2018-08-19T08:28:04.246Z,25.6
2018-08-19T08:28:53.367Z,25.7
2018-08-19T08:29:43.475Z,25.6
2018-08-19T08:30:34.637Z,25.7
2018-08-19T08:31:24.357Z,25.7
2018-08-19T08:32:14.450Z,25.7
2018-08-19T08:33:04.517Z,25.7
2018-08-19T08:33:54.267Z,25.7
2018-08-19T08:34:43.813Z,25.7
2018-08-19T08:35:34.151Z,25.8
2018-08-19T08:36:24.204Z,25.7
2018-08-19T08:37:14.062Z,25.7
2018-08-19T08:38:04.284Z,25.7
2018-08-19T08:38:54.899Z,25.8
2018-08-19T08:39:45.248Z,25.8
2018-08-19T08:40:34.574Z,25.8
2018-08-19T08:41:25.365Z,25.8
2018-08-19T08:42:14.876Z,25.8
2018-08-19T08:43:04.719Z,25.8
2018-08-19T08:43:54.673Z,25.8
2018-08-19T08:44:45.900Z,25.8
2018-08-19T08:45:34.250Z,25.8
2018-08-19T08:46:25.248Z,25.8
2018-08-19T08:47:15.341Z,25.8
2018-08-19T08:48:07.376Z,25.8
2018-08-19T08:48:55.234Z,25.8
2018-08-19T08:49:45.537Z,25.8
2018-08-19T08:50:35.870Z,25.8
2018-08-19T08:51:25.949Z,25.8
2018-08-19T08:52:16.363Z,25.8
2018-08-19T08:53:05.826Z,25.8
2018-08-19T08:53:55.866Z,25.8
2018-08-19T08:54:46.345Z,25.8
2018-08-19T08:55:36.559Z,25.8
2018-08-19T08:56:26.251Z,25.8
2018-08-19T08:57:15.839Z,25.8
2018-08-19T08:58:06.461Z,25.8
2018-08-19T08:58:57.074Z,25.8
2018-08-19T08:59:46.923Z,25.8
2018-08-19T09:00:37.255Z,25.8
2018-08-19T09:01:25.593Z,25.8
2018-08-19T09:02:16.513Z,25.8
2018-08-19T09:03:07.818Z,25.8
2018-08-19T09:03:57.463Z,25.9
2018-08-19T09:04:47.566Z,25.8
2018-08-19T09:21:18.104Z,25.8
2018-08-19T09:22:08.421Z,25.9
2018-08-19T09:23:00.492Z,25.9
2018-08-19T09:23:49.058Z,25.9
2018-08-19T09:24:39.414Z,25.9
2018-08-19T09:25:28.914Z,25.9
2018-08-19T09:26:19.559Z,25.9
2018-08-19T09:27:09.107Z,25.9
2018-08-19T09:27:58.862Z,25.9
2018-08-19T09:28:49.164Z,25.9
2018-08-19T09:29:39.536Z,26
2018-08-19T09:30:28.259Z,26
2018-08-19T09:31:19.468Z,26
2018-08-19T09:32:09.548Z,26
2018-08-19T09:33:01.430Z,26
2018-08-19T09:33:49.991Z,26
2018-08-19T09:34:39.729Z,26
2018-08-19T09:35:29.525Z,26
2018-08-19T09:36:19.593Z,26
2018-08-19T09:37:10.168Z,26
2018-08-19T09:37:59.695Z,26
2018-08-19T09:38:50.626Z,26.1
2018-08-19T09:39:39.851Z,26
2018-08-19T09:40:29.613Z,26.1
2018-08-19T09:41:19.438Z,26.1
2018-08-19T09:42:10.047Z,26.1
2018-08-19T09:42:59.790Z,26.1
2018-08-19T09:43:49.320Z,26.1
2018-08-19T09:44:40.247Z,26.1
2018-08-19T09:45:30.339Z,26.1
2018-08-19T09:46:20.897Z,26.1
2018-08-19T09:47:09.612Z,26.1
2018-08-19T09:48:04.529Z,26.1
2018-08-19T09:48:50.767Z,26.1
2018-08-19T09:49:41.151Z,26.1
2018-08-19T09:50:31.233Z,26.1
2018-08-19T09:51:20.739Z,26.1
2018-08-19T09:52:10.223Z,26.1
2018-08-19T09:53:00.840Z,26.1
2018-08-19T09:53:50.879Z,26.1
2018-08-19T09:54:41.338Z,26.1
2018-08-19T09:55:30.450Z,26.2
2018-08-19T09:56:20.787Z,26.1
2018-08-19T09:57:11.033Z,26.1
2018-08-19T09:58:01.586Z,26.1
2018-08-19T09:58:51.293Z,26.1
2018-08-19T09:59:41.968Z,26.2
2018-08-19T10:00:31.430Z,26.1
2018-08-19T10:01:21.803Z,26.2
2018-08-19T10:02:11.587Z,26.2
2018-08-19T10:03:01.892Z,26.2
2018-08-19T10:03:51.676Z,26.2
2018-08-19T10:04:42.281Z,26.2
2018-08-19T10:05:32.424Z,26.2
2018-08-19T10:06:22.214Z,26.2
2018-08-19T10:07:11.745Z,26.2
2018-08-19T10:08:03.282Z,26.2
2018-08-19T10:08:51.664Z,26.2
2018-08-19T10:09:41.694Z,26.2
2018-08-19T10:10:32.825Z,26.3
2018-08-19T10:11:22.920Z,26.3
2018-08-19T10:12:12.271Z,26.3
2018-08-19T10:13:03.071Z,26.3
2018-08-19T10:13:54.102Z,26.3
2018-08-19T10:14:42.628Z,26.3
2018-08-19T10:15:33.514Z,26.3
2018-08-19T10:16:23.041Z,26.3
2018-08-19T10:17:13.142Z,26.3
2018-08-19T10:18:03.439Z,26.3
2018-08-19T10:18:53.166Z,26.3
2018-08-19T10:19:42.479Z,26.3
2018-08-19T10:20:33.316Z,26.3
2018-08-19T10:21:23.109Z,26.3
2018-08-19T10:22:13.753Z,26.3
2018-08-19T10:23:03.779Z,26.3
2018-08-19T10:23:52.482Z,26.3
2018-08-19T10:24:42.483Z,26.3
2018-08-19T10:25:34.219Z,26.3
2018-08-19T10:26:23.483Z,26.3
2018-08-19T10:27:13.317Z,26.3
2018-08-19T10:28:03.584Z,26.4
2018-08-19T10:28:53.603Z,26.4
2018-08-19T10:29:43.946Z,26.4
2018-08-19T10:30:34.025Z,26.4
2018-08-19T10:31:24.498Z,26.4
2018-08-19T10:32:14.133Z,26.4
2018-08-19T10:33:04.214Z,26.4
2018-08-19T10:33:54.557Z,26.4
2018-08-19T10:34:44.679Z,26.4
2018-08-19T10:35:34.469Z,26.4
2018-08-19T10:36:25.052Z,26.4
2018-08-19T10:37:15.094Z,26.4
2018-08-19T10:38:05.177Z,26.4
2018-08-19T10:38:54.966Z,26.4
2018-08-19T10:39:45.052Z,26.4
2018-08-19T10:40:34.799Z,26.4
2018-08-19T10:41:25.260Z,26.4
2018-08-19T10:42:14.735Z,26.4
2018-08-19T10:43:05.137Z,26.4
2018-08-19T10:43:54.641Z,26.4
2018-08-19T10:44:44.684Z,26.4
2018-08-19T10:45:35.845Z,26.4
2018-08-19T10:46:27.143Z,26.4
2018-08-19T10:47:14.883Z,26.4
2018-08-19T10:48:05.252Z,26.4
2018-08-19T10:48:55.597Z,26.4
2018-08-19T10:49:45.615Z,26.4
2018-08-19T10:50:36.002Z,26.4
2018-08-19T10:51:25.739Z,26.4
2018-08-19T10:52:15.546Z,26.4
2018-08-19T10:53:06.249Z,26.4
2018-08-19T10:53:56.299Z,26.4
2018-08-19T10:54:45.710Z,26.4
2018-08-19T10:55:36.636Z,26.4
2018-08-19T10:56:26.159Z,26.4
2018-08-19T10:57:16.474Z,26.4
2018-08-19T10:58:06.881Z,26.4
2018-08-19T10:58:56.659Z,26.4
2018-08-19T10:59:46.699Z,26.5
2018-08-19T11:00:36.206Z,26.4
2018-08-19T11:01:26.445Z,26.5
2018-08-19T11:02:15.962Z,26.5
2018-08-19T11:03:05.517Z,26.4
2018-08-19T11:03:56.417Z,26.5
2018-08-19T11:04:46.170Z,26.5
2018-08-19T11:05:36.787Z,26.5
2018-08-19T11:06:27.417Z,26.6
2018-08-19T11:07:17.248Z,26.6
2018-08-19T11:08:07.282Z,26.6
2018-08-19T11:08:57.410Z,26.5
2018-08-19T11:09:47.136Z,26.6
2018-08-19T11:10:37.713Z,26.6
2018-08-19T11:11:26.771Z,26.6
2018-08-19T11:12:16.775Z,26.6
2018-08-19T11:13:06.275Z,26.6
2018-08-19T11:13:57.474Z,26.6
2018-08-19T11:14:47.607Z,26.5
2018-08-19T11:15:37.325Z,26.5
2018-08-19T11:16:27.360Z,26.6
2018-08-19T11:17:18.075Z,26.6
2018-08-19T11:18:07.643Z,26.6
2018-08-19T11:18:58.201Z,26.6
2018-08-19T11:19:47.205Z,26.6
2018-08-19T11:20:37.832Z,26.6
2018-08-19T11:21:28.791Z,26.6
2018-08-19T11:22:17.069Z,26.6
2018-08-19T11:23:07.386Z,26.6
2018-08-19T11:23:58.060Z,26.7
2018-08-19T11:24:48.324Z,26.7
2018-08-19T11:25:38.453Z,26.7
2018-08-19T11:26:28.793Z,26.6
2018-08-19T11:27:18.274Z,26.7
2018-08-19T11:28:08.703Z,26.7
2018-08-19T11:28:57.921Z,26.7
2018-08-19T11:29:48.218Z,26.7
2018-08-19T11:30:38.805Z,26.7
2018-08-19T11:31:29.521Z,26.7
2018-08-19T11:32:17.934Z,26.8
2018-08-19T11:33:09.286Z,26.8
2018-08-19T11:34:00.458Z,26.8
2018-08-19T11:34:49.091Z,26.7
2018-08-19T11:35:38.944Z,26.7
2018-08-19T11:36:29.206Z,26.8
2018-08-19T11:37:19.254Z,26.7
2018-08-19T11:38:09.581Z,26.8
2018-08-19T11:38:59.986Z,26.8
2018-08-19T11:39:49.202Z,26.8
2018-08-19T11:40:39.748Z,26.8
2018-08-19T11:41:29.545Z,26.8
2018-08-19T11:42:19.944Z,26.8
2018-08-19T11:43:09.395Z,26.8
2018-08-19T11:43:58.967Z,26.8
2018-08-19T11:44:49.871Z,26.8
2018-08-19T11:45:39.907Z,26.8
2018-08-19T11:46:30.048Z,26.8
2018-08-19T11:47:20.106Z,26.8
2018-08-19T11:48:09.863Z,26.8
2018-08-19T11:49:01.946Z,26.8
2018-08-19T11:49:50.493Z,26.8
2018-08-19T11:50:40.093Z,26.8
2018-08-19T11:51:30.138Z,26.8
2018-08-19T11:52:19.950Z,26.8
2018-08-19T11:53:10.379Z,26.8
2018-08-19T11:54:00.442Z,26.8
2018-08-19T11:54:50.982Z,26.8
2018-08-19T11:55:41.384Z,26.8
2018-08-19T11:56:30.600Z,26.7
2018-08-19T11:57:20.666Z,26.8
2018-08-19T11:58:11.250Z,26.8